The latest weather and runway conditions for major airports within the Toronto FIR.

CYYZ - Toronto-Lester B. Pearson International
CYYZ 201900Z 10011KT 15SM FEW025 OVC140 18/13 A3013 RMK CU1AC8 CU TR SLP206 DENSITY ALT 900FT
Suggested Runways: Departures: 06L, Arrivals: 05
CYOW - Ottawa Macdonald-Cartier International
CYOW 201900Z 04007KT 020V090 15SM FEW025 BKN160 BKN220 16/11 A3023 RMK SC2AC3CI2 SLP242
Suggested Runway: 07
CYTZ - Billy Bishop Toronto City
CYTZ 201900Z AUTO 08014G20KT 9SM BKN140 19/14 A3012 RMK SLP203 DENSITY ALT 400FT
Suggested Runway: 08
CYXU - London International
CYXU 201900Z 09006KT 15SM -SHRA BKN020 OVC100 20/16 A3010 RMK SC5AC3 CVCTV CLD ASOCTD SLP195 DENSITY ALT 1600FT
Suggested Runway: 15
CYHM - John C. Munro Hamilton International
CYHM 201900Z 06010KT 15SM FEW015 BKN120 BKN160 OVC250 18/15 A3012 RMK CU1AC5AS2CS1 CU TR SLP203 DENSITY ALT 1200FT
Suggested Runway: 12
CYKF - Region of Waterloo International
CYKF 201900Z AUTO 09010KT 9SM -RA FEW037 BKN048 BKN070 OVC110 19/14 A3013 RMK SLP206 DENSITY ALT 1500FT
Suggested Runway: 08
CYAM - Sault Ste. Marie
CYAM 201900Z 09007KT 8SM -RA BKN009 BKN014 OVC032 15/14 A3007 RMK SF5SC1NS2 CIG VRB 6-11 SLP187
Suggested Runway: 12
CYTR - Canadian Forces Base Trenton
CYTR 201900Z 08003KT 15SM OVC075 17/11 A3019 RMK AC8 SLP226
Suggested Runway: 06
CYKZ - Toronto/Buttonville Municipal
CYKZ 201826Z 12012KT 14SM -SHRA FEW020 SCT050 BKN080 OVC100 18/13 A3016 RMK CF1SC4AC1AC3 CF TR CVCTV CLD EMBD SLP215 DENSITY ALT 900FT
Suggested Runway: 15
CYOO - Toronto/Oshawa Executive
CYOO 201900Z AUTO 11008G15KT 9SM FEW047 18/13 A3014 RMK SLP210 DENSITY ALT 600FT
Suggested Runway: 12